createdAt,value
2023-05-25T00:02:25.015Z,96734.38
2023-05-25T00:04:52.419Z,96913.47
2023-05-25T00:07:19.210Z,96973.72
2023-05-25T00:09:46.711Z,96874.00
2023-05-25T00:12:14.371Z,96905.38
2023-05-25T00:14:41.161Z,96799.00
2023-05-25T00:17:10.683Z,96989.50
2023-05-25T00:19:38.265Z,96936.16
2023-05-25T00:22:05.155Z,96955.09
2023-05-25T00:24:31.964Z,96826.16
2023-05-25T00:26:58.913Z,97010.44
2023-05-25T00:29:26.206Z,96951.16
2023-05-25T00:31:53.465Z,96920.16
2023-05-25T00:34:20.196Z,96888.63
2023-05-25T00:36:50.001Z,96964.34
2023-05-25T00:39:17.786Z,96935.19
2023-05-25T00:41:45.379Z,96979.22
2023-05-25T00:44:14.849Z,96840.06
2023-05-25T00:46:46.186Z,97026.47
2023-05-25T00:49:14.147Z,96999.19
2023-05-25T00:51:41.209Z,97020.78
2023-05-25T00:54:07.866Z,96986.63
2023-05-25T00:56:38.051Z,96985.66
2023-05-25T00:59:06.895Z,97002.13
2023-05-25T01:01:40.355Z,96925.41
2023-05-25T01:04:10.358Z,96971.91
2023-05-25T01:06:37.710Z,97002.72
2023-05-25T01:09:05.051Z,96742.00
2023-05-25T01:11:39.963Z,96864.78
2023-05-25T01:14:06.474Z,97011.34
2023-05-25T01:16:33.191Z,96954.91
2023-05-25T01:18:59.974Z,96925.16
2023-05-25T01:21:42.344Z,96924.91
2023-05-25T01:24:22.747Z,97021.34
2023-05-25T01:27:03.831Z,96997.25
2023-05-25T01:29:30.479Z,96933.31
2023-05-25T01:31:57.147Z,96962.03
2023-05-25T01:34:23.884Z,96779.31
2023-05-25T01:36:50.996Z,96915.47
2023-05-25T01:39:22.048Z,96976.78
2023-05-25T01:41:48.810Z,96884.31
2023-05-25T01:44:15.806Z,96981.06
2023-05-25T01:46:42.497Z,96914.00
2023-05-25T01:49:27.584Z,97020.91
2023-05-25T01:51:57.139Z,97005.47
2023-05-25T01:54:28.840Z,96934.84
2023-05-25T01:56:56.430Z,96917.97
2023-05-25T01:59:23.077Z,96922.84
2023-05-25T02:01:52.783Z,97013.56
2023-05-25T02:04:19.899Z,96922.59
2023-05-25T02:06:49.041Z,96983.56
2023-05-25T02:09:16.161Z,96937.03
2023-05-25T02:11:42.790Z,96838.75
2023-05-25T02:14:11.014Z,96917.25
2023-05-25T02:16:38.031Z,96957.97
2023-05-25T02:19:04.880Z,96970.94
2023-05-25T02:21:31.537Z,96755.25
2023-05-25T02:23:58.196Z,96894.66
2023-05-25T02:26:24.840Z,96907.97
2023-05-25T02:28:51.729Z,96981.16
2023-05-25T02:31:18.919Z,96937.03
2023-05-25T02:33:45.565Z,96932.41
2023-05-25T02:36:12.221Z,96941.88
2023-05-25T02:38:38.901Z,96855.75
2023-05-25T02:41:05.605Z,96917.78
2023-05-25T02:43:32.735Z,96919.44
2023-05-25T02:45:59.384Z,96906.22
2023-05-25T02:48:26.228Z,96877.38
2023-05-25T02:50:52.891Z,96953.56
2023-05-25T02:53:19.581Z,96956.16
2023-05-25T02:55:46.447Z,96962.03
2023-05-25T02:58:13.315Z,96993.44
2023-05-25T03:00:40.194Z,96987.44
2023-05-25T03:03:06.938Z,96932.28
2023-05-25T03:05:35.534Z,96930.94
2023-05-25T03:08:02.220Z,96989.66
2023-05-25T03:10:28.854Z,96987.50
2023-05-25T03:12:55.578Z,97006.66
2023-05-25T03:15:23.258Z,96750.44
2023-05-25T03:17:50.519Z,96931.78
2023-05-25T03:20:17.232Z,96962.34
2023-05-25T03:22:43.958Z,97002.59
2023-05-25T03:25:13.594Z,96994.56
2023-05-25T03:27:40.573Z,96975.91
2023-05-25T03:30:08.108Z,96987.00
2023-05-25T03:32:34.751Z,97007.56
2023-05-25T03:35:01.391Z,96966.66
2023-05-25T03:37:28.141Z,96982.84
2023-05-25T03:39:54.854Z,97009.84
2023-05-25T03:42:21.494Z,96948.63
2023-05-25T03:44:48.166Z,96788.66
2023-05-25T03:47:14.785Z,96969.69
2023-05-25T03:49:41.617Z,96967.25
2023-05-25T03:52:08.654Z,97017.63
2023-05-25T03:54:35.602Z,96955.72
2023-05-25T03:57:09.794Z,97007.03
2023-05-25T03:59:36.505Z,96951.56
2023-05-25T04:02:03.203Z,96985.28
2023-05-25T04:04:30.124Z,97003.38
2023-05-25T04:06:57.009Z,96994.25
2023-05-25T04:09:23.644Z,96980.47
2023-05-25T04:12:13.357Z,97061.75
2023-05-25T04:14:40.001Z,96982.25
2023-05-25T04:17:06.732Z,96989.06
2023-05-25T04:19:33.377Z,96989.38
2023-05-25T04:22:00.068Z,97019.63
2023-05-25T04:24:27.649Z,97019.94
2023-05-25T04:26:56.916Z,97062.84
2023-05-25T04:29:23.604Z,97019.16
2023-05-25T04:31:51.759Z,96994.03
2023-05-25T04:34:18.517Z,97039.66
2023-05-25T04:36:45.220Z,97035.88
2023-05-25T04:39:11.913Z,97067.81
2023-05-25T04:41:39.332Z,97045.03
2023-05-25T04:44:09.524Z,96994.31
2023-05-25T04:46:37.558Z,96843.16
2023-05-25T04:49:05.722Z,97007.44
2023-05-25T04:51:32.743Z,97050.19
2023-05-25T04:53:59.893Z,97070.84
2023-05-25T04:56:27.013Z,96995.09
2023-05-25T04:58:53.731Z,96962.03
2023-05-25T05:01:20.750Z,96981.22
2023-05-25T05:03:47.651Z,97048.78
2023-05-25T05:06:14.415Z,96997.19
2023-05-25T05:08:41.885Z,97030.53
2023-05-25T05:11:08.554Z,97022.44
2023-05-25T05:13:35.247Z,97030.38
2023-05-25T05:16:01.920Z,97019.41
2023-05-25T05:18:29.221Z,97050.75
2023-05-25T05:20:56.126Z,97014.25
2023-05-25T05:23:22.825Z,97023.00
2023-05-25T05:25:49.489Z,97015.97
2023-05-25T05:28:16.132Z,97017.06
2023-05-25T05:30:44.211Z,97055.31
2023-05-25T05:33:10.965Z,97048.38
2023-05-25T05:35:37.732Z,97031.75
2023-05-25T05:38:05.279Z,96988.56
2023-05-25T05:40:31.943Z,97083.59
2023-05-25T05:42:58.573Z,97095.34
2023-05-25T05:45:25.588Z,97093.72
2023-05-25T05:47:52.342Z,97027.19
2023-05-25T05:50:19.087Z,97042.09
2023-05-25T05:52:45.856Z,97088.69
2023-05-25T05:55:12.562Z,97047.38
2023-05-25T05:57:39.221Z,97071.63
2023-05-25T06:00:07.141Z,97077.75
2023-05-25T06:02:34.026Z,97132.72
2023-05-25T06:05:01.643Z,97041.94
2023-05-25T06:07:29.126Z,97097.22
2023-05-25T06:09:56.221Z,97067.53
2023-05-25T06:12:22.972Z,97082.22
2023-05-25T06:14:52.180Z,97111.13
2023-05-25T06:17:19.304Z,97104.72
2023-05-25T06:19:46.158Z,97107.22
2023-05-25T06:22:12.804Z,97104.16
2023-05-25T06:24:39.452Z,97132.53
2023-05-25T06:27:06.287Z,97127.81
2023-05-25T06:29:33.040Z,97068.88
2023-05-25T06:31:59.816Z,97100.34
2023-05-25T06:34:26.650Z,97101.75
2023-05-25T06:36:53.313Z,97103.03
2023-05-25T06:39:20.384Z,96990.53
2023-05-25T06:41:47.034Z,97089.13
2023-05-25T06:44:13.688Z,97056.72
2023-05-25T06:46:40.414Z,97172.16
2023-05-25T06:49:07.118Z,97070.50
2023-05-25T06:51:33.862Z,97176.88
2023-05-25T06:54:00.597Z,97133.25
2023-05-25T06:56:28.027Z,97083.53
2023-05-25T06:58:54.976Z,97103.41
2023-05-25T07:01:21.703Z,97044.09
2023-05-25T07:03:48.367Z,97047.91
2023-05-25T07:06:17.074Z,96998.59
2023-05-25T07:08:43.747Z,97056.38
2023-05-25T07:11:12.540Z,97098.44
2023-05-25T07:13:39.397Z,97126.66
2023-05-25T07:16:06.297Z,96965.88
2023-05-25T07:18:33.493Z,97090.19
2023-05-25T07:21:01.265Z,97147.69
2023-05-25T07:23:27.973Z,97106.91
2023-05-25T07:25:54.838Z,97119.31
2023-05-25T07:28:21.470Z,97008.66
2023-05-25T07:30:48.271Z,97129.25
2023-05-25T07:33:14.959Z,97079.50
2023-05-25T07:35:41.791Z,97049.81
2023-05-25T07:38:09.414Z,97088.78
2023-05-25T07:40:37.140Z,97094.56
2023-05-25T07:43:08.148Z,97050.06
2023-05-25T07:45:35.110Z,97009.34
2023-05-25T07:48:01.860Z,97122.41
2023-05-25T07:50:29.440Z,97145.72
2023-05-25T07:52:59.860Z,97201.31
2023-05-25T07:55:26.989Z,97175.72
2023-05-25T07:57:53.676Z,97031.84
2023-05-25T08:00:20.806Z,97074.72
2023-05-25T08:02:47.592Z,97082.63
2023-05-25T08:05:14.450Z,97187.56
2023-05-25T08:07:42.814Z,97129.75
2023-05-25T08:10:10.105Z,97142.44
2023-05-25T08:12:47.649Z,97150.19
2023-05-25T08:15:15.177Z,97110.66
2023-05-25T08:17:42.221Z,97199.88
2023-05-25T08:20:09.475Z,97194.22
2023-05-25T08:22:36.260Z,97184.28
2023-05-25T08:25:03.954Z,97102.25
2023-05-25T08:27:32.265Z,97186.19
2023-05-25T08:30:00.607Z,97078.94
2023-05-25T08:32:27.300Z,97083.84
2023-05-25T08:34:54.022Z,97213.00
2023-05-25T08:37:22.726Z,97112.16
2023-05-25T08:39:49.363Z,97197.50
2023-05-25T08:42:16.038Z,97163.81
2023-05-25T08:44:43.016Z,97225.22
2023-05-25T08:47:09.697Z,97186.34
2023-05-25T08:49:38.428Z,97147.50
2023-05-25T08:52:06.018Z,97082.44
2023-05-25T08:54:36.648Z,97161.75
2023-05-25T08:57:12.287Z,97150.22
2023-05-25T08:59:44.898Z,97190.34
2023-05-25T09:02:14.665Z,97228.72
2023-05-25T09:04:42.955Z,97153.81
2023-05-25T09:07:11.147Z,97111.41
2023-05-25T09:09:39.003Z,97189.75
2023-05-25T09:12:09.022Z,97103.09
2023-05-25T09:14:37.893Z,97186.34
2023-05-25T09:17:04.842Z,97098.56
2023-05-25T09:19:31.543Z,97194.66
2023-05-25T09:22:10.725Z,97228.56
2023-05-25T09:24:44.224Z,97137.19
2023-05-25T09:27:11.411Z,96946.22
2023-05-25T09:29:38.384Z,97094.94
2023-05-25T09:32:06.806Z,97216.97
2023-05-25T09:34:36.404Z,97205.53
2023-05-25T09:37:21.623Z,97207.28
2023-05-25T09:39:48.322Z,97218.56
2023-05-25T09:42:15.015Z,97143.22
2023-05-25T09:44:42.976Z,97170.50
2023-05-25T09:47:09.792Z,97219.59
2023-05-25T09:49:36.628Z,97207.88
2023-05-25T09:52:03.307Z,97165.16
2023-05-25T09:54:30.003Z,97204.47
2023-05-25T09:56:56.822Z,97182.63
2023-05-25T09:59:23.639Z,97142.19
2023-05-25T10:01:53.794Z,97143.34
2023-05-25T10:04:21.054Z,97210.78
2023-05-25T10:06:49.867Z,97098.59
2023-05-25T10:09:17.860Z,97124.66
2023-05-25T10:11:44.988Z,97096.66
2023-05-25T10:14:12.554Z,97189.84
2023-05-25T10:16:39.652Z,97155.38
2023-05-25T10:19:22.112Z,97159.31
2023-05-25T10:21:56.155Z,97223.13
2023-05-25T10:24:35.208Z,97183.25
2023-05-25T10:29:51.960Z,97120.78
2023-05-25T10:32:18.730Z,97206.06
2023-05-25T10:34:46.176Z,97216.72
2023-05-25T10:37:12.988Z,97180.47
2023-05-25T10:39:39.635Z,97153.09
2023-05-25T10:42:06.682Z,97179.38
2023-05-25T10:44:33.417Z,97108.59
2023-05-25T10:47:00.150Z,97179.22
2023-05-25T10:49:33.832Z,97159.31
2023-05-25T10:52:00.866Z,97168.97
2023-05-25T10:54:31.982Z,97138.47
2023-05-25T10:57:12.003Z,97193.44
2023-05-25T10:59:42.578Z,97125.06
2023-05-25T11:02:09.568Z,97174.03
2023-05-25T11:04:37.845Z,97147.53
2023-05-25T11:07:08.066Z,97141.50
2023-05-25T11:09:43.590Z,97081.19
2023-05-25T11:12:22.605Z,97145.66
2023-05-25T11:15:17.054Z,97196.47
2023-05-25T11:18:02.846Z,97123.91
2023-05-25T11:20:30.260Z,97181.13
2023-05-25T11:22:57.586Z,97076.19
2023-05-25T11:25:40.442Z,97114.25
2023-05-25T11:28:07.753Z,97163.50
2023-05-25T11:30:34.594Z,97158.44
2023-05-25T11:33:04.741Z,97111.94
2023-05-25T11:35:33.975Z,97141.75
2023-05-25T11:38:01.288Z,97168.69
2023-05-25T11:40:31.384Z,97105.59
2023-05-25T11:43:00.636Z,97071.00
2023-05-25T11:45:33.551Z,97129.47
2023-05-25T11:48:00.440Z,97180.41
2023-05-25T11:50:28.347Z,97084.84
2023-05-25T11:52:55.170Z,97169.94
2023-05-25T11:55:21.963Z,97161.63
2023-05-25T11:57:55.740Z,97176.81
2023-05-25T12:00:27.449Z,97118.78
2023-05-25T12:02:54.430Z,97120.72
2023-05-25T12:05:21.432Z,97099.69
2023-05-25T12:07:48.238Z,97109.34
2023-05-25T12:10:18.319Z,97156.44
2023-05-25T12:12:45.609Z,97152.31
2023-05-25T12:15:15.158Z,97112.44
2023-05-25T12:17:43.030Z,97101.78
2023-05-25T12:20:13.540Z,97117.41
2023-05-25T12:22:41.871Z,96952.81
2023-05-25T12:25:12.317Z,97044.50
2023-05-25T12:27:40.377Z,97050.34
2023-05-25T12:30:11.736Z,97103.75
2023-05-25T12:32:54.909Z,97077.47
2023-05-25T12:35:21.922Z,97057.31
2023-05-25T12:37:48.574Z,97123.91
2023-05-25T12:40:23.355Z,97082.78
2023-05-25T12:42:57.240Z,97137.22
2023-05-25T12:45:24.487Z,97068.28
2023-05-25T12:47:51.474Z,97060.22
2023-05-25T12:50:19.451Z,97101.09
2023-05-25T12:52:46.876Z,97091.47
2023-05-25T12:55:22.640Z,97131.13
2023-05-25T12:57:55.231Z,97049.91
2023-05-25T13:00:26.796Z,96930.47
2023-05-25T13:02:54.087Z,97108.69
2023-05-25T13:05:27.870Z,97076.22
2023-05-25T13:07:56.763Z,97098.47
2023-05-25T13:10:24.055Z,97001.75
2023-05-25T13:12:51.959Z,97069.41
2023-05-25T13:15:21.217Z,97124.84
2023-05-25T13:17:48.668Z,97111.53
2023-05-25T13:20:15.668Z,97027.06
2023-05-25T13:22:43.642Z,97060.09
2023-05-25T13:25:11.229Z,97131.53
2023-05-25T13:27:38.114Z,96970.81
2023-05-25T13:30:08.175Z,97104.19
2023-05-25T13:32:34.946Z,97060.91
2023-05-25T13:35:01.809Z,96900.06
2023-05-25T13:37:28.764Z,97128.41
2023-05-25T13:39:56.214Z,97078.41
2023-05-25T13:42:23.180Z,97047.03
2023-05-25T13:44:50.404Z,97027.72
2023-05-25T13:47:17.143Z,96871.84
2023-05-25T13:49:43.996Z,97052.47
2023-05-25T13:52:11.137Z,97083.03
2023-05-25T13:54:37.804Z,97079.25
2023-05-25T13:57:04.478Z,97062.94
2023-05-25T13:59:31.350Z,97005.00
2023-05-25T14:01:58.141Z,97012.63
2023-05-25T14:04:26.772Z,97031.22
2023-05-25T14:06:56.127Z,97080.78
2023-05-25T14:09:23.426Z,97010.09
2023-05-25T14:11:50.147Z,97112.25
2023-05-25T14:14:30.131Z,96832.94
2023-05-25T14:16:57.899Z,97054.22
2023-05-25T14:19:24.697Z,97099.97
2023-05-25T14:22:03.848Z,96929.41
2023-05-25T14:24:38.184Z,97044.59
2023-05-25T14:27:05.041Z,97076.38
2023-05-25T14:29:31.690Z,97084.22
2023-05-25T14:31:58.505Z,97047.84
2023-05-25T14:34:25.386Z,97023.91
2023-05-25T14:36:52.007Z,97016.63
2023-05-25T14:39:18.681Z,97001.22
2023-05-25T14:41:45.402Z,97055.81
2023-05-25T14:44:12.067Z,97046.88
2023-05-25T14:46:38.856Z,97064.81
2023-05-25T14:49:05.703Z,96993.88
2023-05-25T14:51:32.383Z,96894.75
2023-05-25T14:54:00.762Z,97059.53
2023-05-25T14:56:31.061Z,96974.81
2023-05-25T14:58:58.116Z,96974.94
2023-05-25T15:01:25.675Z,97074.34
2023-05-25T15:03:52.807Z,97073.56
2023-05-25T15:06:19.712Z,97052.25
2023-05-25T15:08:46.409Z,97046.13
2023-05-25T15:11:13.291Z,97084.63
2023-05-25T15:13:40.952Z,97060.84
2023-05-25T15:16:11.428Z,96902.09
2023-05-25T15:18:38.161Z,97085.34
2023-05-25T15:21:04.838Z,97052.28
2023-05-25T15:23:32.117Z,97078.22
2023-05-25T15:26:03.344Z,97096.66
2023-05-25T15:28:30.907Z,97069.44
2023-05-25T15:30:58.563Z,97034.88
2023-05-25T15:33:36.082Z,97073.50
2023-05-25T15:36:06.654Z,97066.97
2023-05-25T15:38:33.342Z,96989.41
2023-05-25T15:41:00.180Z,96955.88
2023-05-25T15:43:27.108Z,97006.34
2023-05-25T15:45:53.818Z,97025.25
2023-05-25T15:48:20.548Z,97086.91
2023-05-25T15:50:47.436Z,97049.19
2023-05-25T15:53:14.393Z,97056.56
2023-05-25T15:55:41.241Z,96965.78
2023-05-25T15:58:07.891Z,96848.84
2023-05-25T16:00:34.623Z,97044.13
2023-05-25T16:03:01.421Z,97057.50
2023-05-25T16:05:29.876Z,96997.56
2023-05-25T16:07:56.584Z,97034.09
2023-05-25T16:10:23.210Z,97037.84
2023-05-25T16:12:49.905Z,96970.22
2023-05-25T16:15:16.966Z,97042.25
2023-05-25T16:17:43.613Z,97036.53
2023-05-25T16:20:10.529Z,96900.94
2023-05-25T16:22:37.547Z,96988.13
2023-05-25T16:25:05.015Z,97067.84
2023-05-25T16:27:31.800Z,97066.06
2023-05-25T16:29:58.527Z,97039.50
2023-05-25T16:32:25.432Z,97075.50
2023-05-25T16:34:55.203Z,97035.25
2023-05-25T16:37:21.911Z,97024.34
2023-05-25T16:39:48.723Z,97075.81
2023-05-25T16:42:15.389Z,97023.00
2023-05-25T16:44:42.085Z,97016.16
2023-05-25T16:47:08.905Z,97045.34
2023-05-25T16:49:35.633Z,97050.03
2023-05-25T16:52:05.232Z,96992.94
2023-05-25T16:54:31.873Z,97005.28
2023-05-25T16:56:58.700Z,97063.19
2023-05-25T16:59:25.353Z,96989.75
2023-05-25T17:01:52.061Z,97025.28
2023-05-25T17:04:18.842Z,96810.75
2023-05-25T17:06:45.565Z,97032.31
2023-05-25T17:09:12.210Z,97042.91
2023-05-25T17:11:38.939Z,97053.16
2023-05-25T17:14:06.181Z,97084.94
2023-05-25T17:16:33.031Z,97081.50
2023-05-25T17:18:59.712Z,97047.28
2023-05-25T17:21:27.058Z,97064.91
2023-05-25T17:23:53.732Z,96947.88
2023-05-25T17:26:20.382Z,96940.09
2023-05-25T17:28:47.116Z,97098.13
2023-05-25T17:31:13.975Z,97040.03
2023-05-25T17:33:40.649Z,97022.53
2023-05-25T17:36:07.592Z,97130.69
2023-05-25T17:38:37.012Z,96804.13
2023-05-25T17:41:03.686Z,97042.22
2023-05-25T17:43:30.553Z,97080.59
2023-05-25T17:48:26.003Z,97047.25
2023-05-25T17:50:52.657Z,96876.91
2023-05-25T17:53:19.411Z,97090.34
2023-05-25T17:55:46.296Z,97044.16
2023-05-25T17:58:13.245Z,97070.75
2023-05-25T18:00:40.076Z,97083.94
2023-05-25T18:03:06.871Z,96972.97
2023-05-25T18:05:33.586Z,97086.63
2023-05-25T18:08:00.506Z,97032.50
2023-05-25T18:10:27.216Z,97029.59
2023-05-25T18:12:54.265Z,97060.41
2023-05-25T18:15:21.816Z,97050.59
2023-05-25T18:17:48.699Z,97038.19
2023-05-25T18:20:15.797Z,97024.97
2023-05-25T18:22:42.733Z,97074.22
2023-05-25T18:25:09.642Z,97073.81
2023-05-25T18:27:36.404Z,97113.97
2023-05-25T18:30:03.108Z,97104.13
2023-05-25T18:32:29.811Z,97078.16
2023-05-25T18:34:57.340Z,97085.16
2023-05-25T18:37:24.681Z,97105.59
2023-05-25T18:39:51.449Z,96969.53
2023-05-25T18:42:18.140Z,97085.03
2023-05-25T18:44:44.927Z,97086.94
2023-05-25T18:47:12.019Z,97031.75
2023-05-25T18:49:38.996Z,97032.84
2023-05-25T18:52:08.238Z,97060.47
2023-05-25T18:54:34.939Z,97059.78
2023-05-25T18:57:01.733Z,96981.94
2023-05-25T18:59:28.806Z,97034.03
2023-05-25T19:01:56.652Z,97003.59
2023-05-25T19:04:23.463Z,97044.63
2023-05-25T19:06:50.311Z,96966.22
2023-05-25T19:09:17.480Z,97029.16
2023-05-25T19:11:44.210Z,97006.03
2023-05-25T19:14:10.956Z,97031.97
2023-05-25T19:16:37.784Z,97079.38
2023-05-25T19:19:04.716Z,97102.47
2023-05-25T19:21:31.487Z,97153.56
2023-05-25T19:23:58.296Z,97104.88
2023-05-25T19:26:24.948Z,97158.91
2023-05-25T19:28:51.626Z,97101.28
2023-05-25T19:31:18.623Z,97087.63
2023-05-25T19:33:45.551Z,97072.72
2023-05-25T19:36:12.220Z,97098.03
2023-05-25T19:38:41.816Z,97118.59
2023-05-25T19:41:09.110Z,97144.72
2023-05-25T19:43:36.238Z,97064.34
2023-05-25T19:46:03.246Z,97080.00
2023-05-25T19:48:30.237Z,97150.28
2023-05-25T19:50:57.780Z,97025.78
2023-05-25T19:53:24.723Z,97114.22
2023-05-25T19:55:51.631Z,97029.59
2023-05-25T19:58:18.320Z,97026.09
2023-05-25T20:00:45.085Z,97129.16
2023-05-25T20:03:12.049Z,97087.56
2023-05-25T20:05:39.376Z,97079.25
2023-05-25T20:08:06.168Z,97077.16
2023-05-25T20:10:39.476Z,97158.78
2023-05-25T20:13:07.528Z,97073.94
2023-05-25T20:15:34.618Z,97082.09
2023-05-25T20:18:02.326Z,97155.56
2023-05-25T20:20:29.188Z,97050.81
2023-05-25T20:23:04.191Z,97002.34
2023-05-25T20:25:30.777Z,97162.03
2023-05-25T20:27:57.397Z,97103.38
2023-05-25T20:30:24.213Z,97102.88
2023-05-25T20:32:50.979Z,97125.47
2023-05-25T20:35:17.794Z,97163.81
2023-05-25T20:37:44.830Z,97115.03
2023-05-25T20:40:11.715Z,97062.16
2023-05-25T20:42:38.382Z,97103.38
2023-05-25T20:45:05.469Z,97082.50
2023-05-25T20:47:32.223Z,97064.88
2023-05-25T20:49:58.906Z,97028.19
2023-05-25T20:52:25.919Z,97150.97
2023-05-25T20:54:52.621Z,97079.47
2023-05-25T20:57:19.388Z,97110.81
2023-05-25T20:59:46.497Z,97110.34
2023-05-25T21:02:13.511Z,97149.47
2023-05-25T21:04:40.322Z,97068.78
2023-05-25T21:07:07.354Z,97106.34
2023-05-25T21:09:34.253Z,97128.53
2023-05-25T21:12:02.157Z,97039.09
2023-05-25T21:14:29.820Z,97035.00
2023-05-25T21:16:56.909Z,97095.88
2023-05-25T21:19:24.646Z,97090.06
2023-05-25T21:21:51.870Z,97075.69
2023-05-25T21:24:18.879Z,97085.69
2023-05-25T21:26:45.615Z,97099.22
2023-05-25T21:29:12.323Z,97068.38
2023-05-25T21:31:39.211Z,97057.72
2023-05-25T21:34:05.968Z,97110.13
2023-05-25T21:36:32.762Z,97064.81
2023-05-25T21:38:59.501Z,97077.22
2023-05-25T21:41:27.295Z,97026.75
2023-05-25T21:43:53.943Z,97094.22
2023-05-25T21:46:20.646Z,97093.53
2023-05-25T21:48:47.290Z,97113.72
2023-05-25T21:51:14.094Z,97102.00
2023-05-25T21:53:40.851Z,97001.38
2023-05-25T21:56:10.135Z,97098.91
2023-05-25T21:58:38.139Z,97114.09
2023-05-25T22:01:06.306Z,97093.69
2023-05-25T22:03:34.330Z,97072.72
2023-05-25T22:06:01.919Z,97099.50
2023-05-25T22:08:28.774Z,97085.75
2023-05-25T22:10:55.943Z,97060.81
2023-05-25T22:13:22.852Z,97042.88
2023-05-25T22:15:49.797Z,97005.91
2023-05-25T22:18:16.802Z,97079.72
2023-05-25T22:20:43.566Z,97138.66
2023-05-25T22:23:11.643Z,97092.59
2023-05-25T22:25:38.504Z,97161.22
2023-05-25T22:28:05.308Z,97141.47
2023-05-25T22:30:32.286Z,97026.31
2023-05-25T22:32:59.296Z,97124.00
2023-05-25T22:35:26.167Z,96825.00
2023-05-25T22:37:53.105Z,97125.22
2023-05-25T22:40:20.108Z,97152.66
2023-05-25T22:42:50.500Z,97140.22
2023-05-25T22:45:18.345Z,97117.22
2023-05-25T22:47:45.414Z,97094.81
2023-05-25T22:50:12.654Z,97119.00
2023-05-25T22:52:41.214Z,97125.38
2023-05-25T22:55:09.079Z,97096.00
2023-05-25T22:57:36.102Z,97094.06
2023-05-25T23:00:04.703Z,97138.00
2023-05-25T23:02:31.709Z,97122.97
2023-05-25T23:04:58.717Z,97079.06
2023-05-25T23:07:25.763Z,97052.56
2023-05-25T23:09:53.162Z,97122.09
2023-05-25T23:12:20.158Z,97110.75
2023-05-25T23:14:47.172Z,97106.00
2023-05-25T23:17:14.343Z,96936.34
2023-05-25T23:19:41.417Z,97085.59
2023-05-25T23:22:08.348Z,97121.66
2023-05-25T23:24:35.361Z,97044.00
2023-05-25T23:27:02.972Z,97132.63
2023-05-25T23:29:30.117Z,97065.72
2023-05-25T23:31:57.172Z,97106.34
2023-05-25T23:34:24.146Z,97139.53
2023-05-25T23:36:54.169Z,97136.59
2023-05-25T23:39:21.836Z,97084.19
2023-05-25T23:41:48.720Z,97023.09
2023-05-25T23:44:15.955Z,97072.44
2023-05-25T23:46:42.876Z,97122.91
2023-05-25T23:49:09.714Z,97043.06
2023-05-25T23:51:36.763Z,97032.31
2023-05-25T23:54:03.861Z,97034.72
2023-05-25T23:56:32.769Z,97082.59
2023-05-25T23:58:59.865Z,97060.22
